createdAt,value
2018-12-17T00:00:28.401Z,91.86
2018-12-17T00:02:58.210Z,91.87
2018-12-17T00:05:27.812Z,91.60
2018-12-17T00:07:57.532Z,91.60
2018-12-17T00:10:27.655Z,90.74
2018-12-17T00:12:57.269Z,89.70
2018-12-17T00:15:26.756Z,88.25
2018-12-17T00:17:56.365Z,88.00
2018-12-17T00:20:25.970Z,87.28
2018-12-17T00:22:55.529Z,87.25
2018-12-17T00:25:25.059Z,87.91
2018-12-17T00:27:54.670Z,88.61
2018-12-17T00:30:24.320Z,88.43
2018-12-17T00:32:53.771Z,87.98
2018-12-17T00:35:23.345Z,88.43
2018-12-17T00:37:53.026Z,89.05
2018-12-17T00:40:22.620Z,89.10
2018-12-17T00:42:52.248Z,88.08
2018-12-17T00:45:22.459Z,88.58
2018-12-17T00:47:51.923Z,87.73
2018-12-17T00:50:21.421Z,86.36
2018-12-17T00:52:50.977Z,85.89
2018-12-17T00:55:20.984Z,86.14
2018-12-17T00:57:50.624Z,85.27
2018-12-17T01:00:20.369Z,83.44
2018-12-17T01:02:49.915Z,83.48
2018-12-17T01:05:19.527Z,81.67
2018-12-17T01:07:49.233Z,80.53
2018-12-17T01:10:18.786Z,82.41
2018-12-17T01:12:48.535Z,83.05
2018-12-17T01:15:18.221Z,82.03
2018-12-17T01:17:47.823Z,81.47
2018-12-17T01:20:17.543Z,80.16
2018-12-17T01:22:47.236Z,79.97
2018-12-17T01:25:16.778Z,80.09
2018-12-17T01:27:46.467Z,82.57
2018-12-17T01:30:16.092Z,82.72
2018-12-17T01:32:46.522Z,82.49
2018-12-17T01:35:16.040Z,82.25
2018-12-17T01:37:45.651Z,81.73
2018-12-17T01:40:15.310Z,82.80
2018-12-17T01:42:44.958Z,82.37
2018-12-17T01:45:14.723Z,81.29
2018-12-17T01:47:44.332Z,79.60
2018-12-17T01:50:14.071Z,80.30
2018-12-17T01:52:43.688Z,79.03
2018-12-17T01:55:13.099Z,77.54
2018-12-17T01:57:42.599Z,79.36
2018-12-17T02:00:12.154Z,79.34
2018-12-17T02:02:41.724Z,78.83
2018-12-17T02:05:11.709Z,79.21
2018-12-17T02:07:41.191Z,79.32
2018-12-17T02:10:10.942Z,80.02
2018-12-17T02:12:40.565Z,79.71
2018-12-17T02:15:10.246Z,80.72
2018-12-17T02:17:40.495Z,80.68
2018-12-17T02:20:10.102Z,80.24
2018-12-17T02:22:39.703Z,79.54
2018-12-17T02:25:09.356Z,80.09
2018-12-17T02:27:38.993Z,79.78
2018-12-17T02:30:08.660Z,80.46
2018-12-17T02:32:38.253Z,80.24
2018-12-17T02:35:08.117Z,80.12
2018-12-17T02:37:37.613Z,80.92
2018-12-17T02:40:07.930Z,80.41
2018-12-17T02:42:37.687Z,81.23
2018-12-17T02:45:07.369Z,80.33
2018-12-17T02:47:37.064Z,80.08
2018-12-17T02:50:07.297Z,80.96
2018-12-17T02:52:36.855Z,81.26
2018-12-17T02:55:07.203Z,80.41
2018-12-17T02:57:37.135Z,80.14
2018-12-17T03:00:07.991Z,79.37
2018-12-17T03:02:37.889Z,79.62
2018-12-17T03:05:08.101Z,78.31
2018-12-17T03:07:38.003Z,78.93
2018-12-17T03:10:08.023Z,79.88
2018-12-17T03:12:37.844Z,79.80
2018-12-17T03:15:07.967Z,79.10
2018-12-17T03:17:37.795Z,77.61
2018-12-17T03:20:07.583Z,78.37
2018-12-17T03:22:37.104Z,79.11
2018-12-17T03:25:06.873Z,79.11
2018-12-17T03:27:37.399Z,79.55
2018-12-17T03:30:07.794Z,80.43
2018-12-17T03:32:37.486Z,80.84
2018-12-17T03:35:06.987Z,81.12
2018-12-17T03:37:36.717Z,80.91
2018-12-17T03:40:06.588Z,81.22
2018-12-17T03:42:36.100Z,81.30
2018-12-17T03:45:06.096Z,80.96
2018-12-17T03:47:35.839Z,81.18
2018-12-17T03:50:06.283Z,81.27
2018-12-17T03:52:35.872Z,81.05
2018-12-17T03:55:05.640Z,81.56
2018-12-17T03:57:35.309Z,81.23
2018-12-17T04:00:05.924Z,81.06
2018-12-17T04:02:35.586Z,80.97
2018-12-17T04:05:05.294Z,81.48
2018-12-17T04:07:34.940Z,80.85
2018-12-17T04:10:04.779Z,80.52
2018-12-17T04:12:34.492Z,80.76
2018-12-17T04:15:04.139Z,80.83
2018-12-17T04:17:33.607Z,79.61
2018-12-17T04:20:03.147Z,78.67
2018-12-17T04:22:32.795Z,78.15
2018-12-17T04:25:02.347Z,77.51
2018-12-17T04:27:32.584Z,78.09
2018-12-17T04:30:02.205Z,77.87
2018-12-17T04:32:31.777Z,78.39
2018-12-17T04:35:01.314Z,78.42
2018-12-17T04:37:30.982Z,78.53
2018-12-17T04:40:00.690Z,79.21
2018-12-17T04:42:30.339Z,79.58
2018-12-17T04:45:00.109Z,79.96
2018-12-17T04:47:29.632Z,80.56
2018-12-17T04:49:59.463Z,79.97
2018-12-17T04:52:29.323Z,80.30
2018-12-17T04:54:58.887Z,79.71
2018-12-17T04:57:28.551Z,79.50
2018-12-17T04:59:58.111Z,79.23
2018-12-17T05:02:27.720Z,78.93
2018-12-17T05:04:57.411Z,79.40
2018-12-17T05:07:27.004Z,79.91
2018-12-17T05:09:56.520Z,79.27
2018-12-17T05:12:26.263Z,78.91
2018-12-17T05:14:55.824Z,78.56
2018-12-17T05:17:25.450Z,78.48
2018-12-17T05:19:55.058Z,78.88
2018-12-17T05:22:24.897Z,78.08
2018-12-17T05:24:54.587Z,77.87
2018-12-17T05:27:24.550Z,78.47
2018-12-17T05:29:54.844Z,78.50
2018-12-17T05:32:24.397Z,78.08
2018-12-17T05:34:54.066Z,77.66
2018-12-17T05:37:23.682Z,77.61
2018-12-17T05:39:53.209Z,77.77
2018-12-17T05:42:23.157Z,77.70
2018-12-17T05:44:52.839Z,77.62
2018-12-17T05:47:22.422Z,77.88
2018-12-17T05:49:52.041Z,77.51
2018-12-17T05:52:21.912Z,77.75
2018-12-17T05:54:51.547Z,77.13
2018-12-17T05:57:21.005Z,77.25
2018-12-17T05:59:50.702Z,77.50
2018-12-17T06:02:20.548Z,77.12
2018-12-17T06:04:50.232Z,77.65
2018-12-17T06:07:19.846Z,77.46
2018-12-17T06:09:49.456Z,77.78
2018-12-17T06:12:19.258Z,77.99
2018-12-17T06:14:49.302Z,78.03
2018-12-17T06:17:18.937Z,77.67
2018-12-17T06:19:48.480Z,78.68
2018-12-17T06:22:18.356Z,77.11
2018-12-17T06:24:48.117Z,76.14
2018-12-17T06:27:18.657Z,76.76
2018-12-17T06:29:48.211Z,75.48
2018-12-17T06:32:17.681Z,75.57
2018-12-17T06:34:47.236Z,74.96
2018-12-17T06:37:16.851Z,74.84
2018-12-17T06:39:46.536Z,75.13
2018-12-17T06:42:16.213Z,75.31
2018-12-17T06:44:45.877Z,75.64
2018-12-17T06:47:15.495Z,74.69
2018-12-17T06:49:45.725Z,74.48
2018-12-17T06:52:15.379Z,74.47
2018-12-17T06:54:45.007Z,73.84
2018-12-17T06:57:14.680Z,75.27
2018-12-17T06:59:44.276Z,74.85
2018-12-17T07:02:14.152Z,75.56
2018-12-17T07:04:43.780Z,76.62
2018-12-17T07:07:13.434Z,77.47
2018-12-17T07:09:43.174Z,76.97
2018-12-17T07:12:12.661Z,75.89
2018-12-17T07:14:42.283Z,76.33
2018-12-17T07:17:12.151Z,76.44
2018-12-17T07:19:41.976Z,76.94
2018-12-17T07:22:11.623Z,76.22
2018-12-17T07:24:41.245Z,75.23
2018-12-17T07:27:10.908Z,75.99
2018-12-17T07:29:40.417Z,76.72
2018-12-17T07:32:10.279Z,76.85
2018-12-17T07:34:39.896Z,75.73
2018-12-17T07:37:09.545Z,73.90
2018-12-17T07:39:39.290Z,74.43
2018-12-17T07:42:09.023Z,73.82
2018-12-17T07:44:38.806Z,73.87
2018-12-17T07:47:08.401Z,73.61
2018-12-17T07:49:37.870Z,72.96
2018-12-17T07:52:07.490Z,72.01
2018-12-17T07:54:37.090Z,71.58
2018-12-17T07:57:06.832Z,71.45
2018-12-17T07:59:36.643Z,71.00
2018-12-17T08:02:06.488Z,70.32
2018-12-17T08:04:36.021Z,70.37
2018-12-17T08:07:05.741Z,70.07
2018-12-17T08:09:35.355Z,69.61
2018-12-17T08:12:05.971Z,69.78
2018-12-17T08:14:35.666Z,69.51
2018-12-17T08:17:06.299Z,69.97
2018-12-17T08:19:36.681Z,69.16
2018-12-17T08:22:06.263Z,67.94
2018-12-17T08:24:35.716Z,67.88
2018-12-17T08:27:05.345Z,67.47
2018-12-17T08:29:35.171Z,66.84
2018-12-17T08:32:04.802Z,66.81
2018-12-17T08:34:34.392Z,67.62
2018-12-17T08:37:04.058Z,68.38
2018-12-17T08:39:33.685Z,68.71
2018-12-17T08:42:03.206Z,68.43
2018-12-17T08:44:32.814Z,68.74
2018-12-17T08:47:32.427Z,70.50
2018-12-17T08:50:02.109Z,69.31
2018-12-17T08:52:32.145Z,68.35
2018-12-17T08:55:02.179Z,68.39
2018-12-17T08:57:37.808Z,68.72
2018-12-17T09:00:10.781Z,67.22
2018-12-17T09:02:35.910Z,69.59
2018-12-17T09:05:06.181Z,68.98
2018-12-17T09:07:36.005Z,68.87
2018-12-17T09:10:06.788Z,66.92
2018-12-17T09:12:36.391Z,66.31
2018-12-17T09:15:06.822Z,64.34
2018-12-17T09:17:36.675Z,62.68
2018-12-17T09:20:07.110Z,63.61
2018-12-17T09:22:36.718Z,63.50
2018-12-17T09:25:07.387Z,64.28
2018-12-17T09:27:36.938Z,65.22
2018-12-17T09:30:07.644Z,63.23
2018-12-17T09:32:37.291Z,62.82
2018-12-17T09:35:07.269Z,63.03
2018-12-17T09:37:37.018Z,62.12
2018-12-17T09:40:07.486Z,62.53
2018-12-17T09:42:37.386Z,63.02
2018-12-17T09:45:07.875Z,62.01
2018-12-17T09:47:37.601Z,61.16
2018-12-17T09:50:07.504Z,60.53
2018-12-17T09:52:37.292Z,60.93
2018-12-17T09:55:07.265Z,60.21
2018-12-17T09:57:37.010Z,58.17
2018-12-17T10:00:07.934Z,57.32
2018-12-17T10:02:37.583Z,56.06
2018-12-17T10:05:07.647Z,56.86
2018-12-17T10:07:37.483Z,57.02
2018-12-17T10:10:08.009Z,58.27
2018-12-17T10:12:37.949Z,57.72
2018-12-17T10:15:08.961Z,56.99
2018-12-17T10:17:38.741Z,57.10
2018-12-17T10:20:08.518Z,56.69
2018-12-17T10:22:38.338Z,57.19
2018-12-17T10:25:08.200Z,58.18
2018-12-17T10:27:37.985Z,59.25
2018-12-17T10:30:08.322Z,59.56
2018-12-17T10:32:38.136Z,58.91
2018-12-17T10:35:07.907Z,57.63
2018-12-17T10:37:37.861Z,58.65
2018-12-17T10:40:09.946Z,58.01
2018-12-17T10:42:39.684Z,58.51
2018-12-17T10:45:10.069Z,58.86
2018-12-17T10:47:39.735Z,58.24
2018-12-17T10:50:09.895Z,59.22
2018-12-17T10:52:39.636Z,59.39
2018-12-17T10:55:09.559Z,56.64
2018-12-17T10:57:39.984Z,56.50
2018-12-17T11:00:16.962Z,56.27
2018-12-17T11:02:46.828Z,57.67
2018-12-17T11:05:17.755Z,56.50
2018-12-17T11:07:47.632Z,56.97
2018-12-17T11:10:17.287Z,58.05
2018-12-17T11:12:47.231Z,58.98
2018-12-17T11:15:17.013Z,59.49
2018-12-17T11:17:46.908Z,59.35
2018-12-17T11:20:16.893Z,56.50
2018-12-17T11:22:46.702Z,53.78
2018-12-17T11:25:16.221Z,53.72
2018-12-17T11:27:45.917Z,53.22
2018-12-17T11:30:15.519Z,56.65
2018-12-17T11:32:45.306Z,53.61
2018-12-17T11:35:15.022Z,55.13
2018-12-17T11:37:44.774Z,54.56
2018-12-17T11:40:14.365Z,55.95
2018-12-17T11:42:44.123Z,55.97
2018-12-17T11:45:14.673Z,55.59
2018-12-17T11:47:44.524Z,54.91
2018-12-17T11:50:15.033Z,54.47
2018-12-17T11:52:44.575Z,54.13
2018-12-17T11:55:14.253Z,54.39
2018-12-17T11:58:07.417Z,53.41
2018-12-17T12:00:37.309Z,53.71
2018-12-17T12:03:06.916Z,55.49
2018-12-17T12:05:36.890Z,56.30
2018-12-17T12:08:06.409Z,55.45
2018-12-17T12:10:36.222Z,57.50
2018-12-17T12:13:06.728Z,58.78
2018-12-17T12:15:36.600Z,58.61
2018-12-17T12:18:06.663Z,59.72
2018-12-17T12:20:36.443Z,58.42
2018-12-17T12:23:06.443Z,58.00
2018-12-17T12:25:36.574Z,57.90
2018-12-17T12:28:06.533Z,57.76
2018-12-17T12:30:36.317Z,59.46
2018-12-17T12:33:06.178Z,58.48
2018-12-17T12:35:35.929Z,58.61
2018-12-17T12:38:05.765Z,58.82
2018-12-17T12:40:35.482Z,60.46
2018-12-17T12:43:05.284Z,59.67
2018-12-17T12:45:34.940Z,58.42
2018-12-17T12:48:04.628Z,59.25
2018-12-17T12:50:34.454Z,59.63
2018-12-17T12:53:04.332Z,60.65
2018-12-17T12:55:34.030Z,60.19
2018-12-17T12:58:04.061Z,59.69
2018-12-17T13:00:34.171Z,60.36
2018-12-17T13:03:04.114Z,60.01
2018-12-17T13:05:34.141Z,60.89
2018-12-17T13:08:03.972Z,59.25
2018-12-17T13:10:33.666Z,59.12
2018-12-17T13:13:03.387Z,59.97
2018-12-17T13:15:33.041Z,60.44
2018-12-17T13:18:03.011Z,61.36
2018-12-17T13:20:32.965Z,61.25
2018-12-17T13:23:02.635Z,60.91
2018-12-17T13:25:36.659Z,60.62
2018-12-17T13:28:06.304Z,59.86
2018-12-17T13:30:36.089Z,59.75
2018-12-17T13:33:05.937Z,60.26
2018-12-17T13:35:35.633Z,59.73
2018-12-17T13:38:05.497Z,61.21
2018-12-17T13:40:35.553Z,61.37
2018-12-17T13:43:05.734Z,60.82
2018-12-17T13:45:35.407Z,62.33
2018-12-17T13:48:14.073Z,62.57
2018-12-17T13:50:43.817Z,63.52
2018-12-17T13:53:18.604Z,63.45
2018-12-17T13:55:48.224Z,63.37
2018-12-17T13:58:18.180Z,63.64
2018-12-17T14:00:47.731Z,63.47
2018-12-17T14:03:17.749Z,64.19
2018-12-17T14:05:47.460Z,64.38
2018-12-17T14:08:17.287Z,64.50
2018-12-17T14:10:51.150Z,65.43
2018-12-17T14:13:21.037Z,65.64
2018-12-17T14:15:57.760Z,66.27
2018-12-17T14:18:32.233Z,66.91
2018-12-17T14:21:07.069Z,67.20
2018-12-17T14:23:36.639Z,66.98
2018-12-17T14:26:07.195Z,67.05
2018-12-17T14:28:36.817Z,66.84
2018-12-17T14:31:07.820Z,66.88
2018-12-17T14:33:37.641Z,67.03
2018-12-17T14:36:09.310Z,67.18
2018-12-17T14:38:40.180Z,67.57
2018-12-17T14:41:09.937Z,66.90
2018-12-17T14:43:39.857Z,67.25
2018-12-17T14:46:09.728Z,67.24
2018-12-17T14:48:39.355Z,67.88
2018-12-17T14:51:09.243Z,67.87
2018-12-17T14:53:39.025Z,68.49
2018-12-17T14:56:08.709Z,68.18
2018-12-17T14:58:44.499Z,67.74
2018-12-17T15:01:10.189Z,68.05
2018-12-17T15:03:40.048Z,68.38
2018-12-17T15:06:09.814Z,68.63
2018-12-17T15:08:39.419Z,68.34
2018-12-17T15:11:10.302Z,69.23
2018-12-17T15:13:40.112Z,69.36
2018-12-17T15:16:10.601Z,69.04
2018-12-17T15:18:40.124Z,69.25
2018-12-17T15:21:09.896Z,70.08
2018-12-17T15:23:39.571Z,69.80
2018-12-17T15:26:09.415Z,69.59
2018-12-17T15:28:39.055Z,69.42
2018-12-17T15:31:08.722Z,69.37
2018-12-17T15:33:38.474Z,69.49
2018-12-17T15:36:08.213Z,70.37
2018-12-17T15:38:37.970Z,69.96
2018-12-17T15:41:08.598Z,69.80
2018-12-17T15:43:38.893Z,70.09
2018-12-17T15:46:08.593Z,69.95
2018-12-17T15:48:38.656Z,69.65
2018-12-17T15:51:08.488Z,69.73
2018-12-17T15:53:38.066Z,70.29
2018-12-17T15:56:07.969Z,70.46
2018-12-17T15:58:37.794Z,69.40
2018-12-17T16:01:07.395Z,69.66
2018-12-17T16:03:37.491Z,69.67
2018-12-17T16:06:07.123Z,70.12
2018-12-17T16:08:36.880Z,68.74
2018-12-17T16:11:06.415Z,68.60
2018-12-17T16:13:36.199Z,69.12
2018-12-17T16:16:06.160Z,68.57
2018-12-17T16:18:35.831Z,69.46
2018-12-17T16:21:05.594Z,70.17
2018-12-17T16:23:35.506Z,70.05
2018-12-17T16:26:05.617Z,69.79
2018-12-17T16:28:35.388Z,69.57
2018-12-17T16:31:05.350Z,69.89
2018-12-17T16:33:35.173Z,71.85
2018-12-17T16:36:05.037Z,73.59
2018-12-17T16:38:34.765Z,77.37
2018-12-17T16:41:04.376Z,80.52
2018-12-17T16:43:34.190Z,83.10
2018-12-17T16:46:04.062Z,85.74
2018-12-17T16:48:33.566Z,88.46
2018-12-17T16:51:06.912Z,91.28
2018-12-17T16:53:36.510Z,93.25
2018-12-17T16:56:06.165Z,94.56
2018-12-17T16:58:36.394Z,95.75
2018-12-17T17:01:06.123Z,96.56
2018-12-17T17:03:36.941Z,97.15
2018-12-17T17:06:06.936Z,97.33
2018-12-17T17:08:36.616Z,96.90
2018-12-17T17:11:06.523Z,97.13
2018-12-17T17:13:36.357Z,97.22
2018-12-17T17:16:06.125Z,97.06
2018-12-17T17:18:35.910Z,96.63
2018-12-17T17:21:05.823Z,96.86
2018-12-17T17:23:36.455Z,96.80
2018-12-17T17:26:06.304Z,97.04
2018-12-17T17:28:36.237Z,97.21
2018-12-17T17:31:06.042Z,97.49
2018-12-17T17:33:35.694Z,97.10
2018-12-17T17:36:05.358Z,97.35
2018-12-17T17:38:35.046Z,96.81
2018-12-17T17:41:05.362Z,96.84
2018-12-17T17:43:35.387Z,96.61
2018-12-17T17:46:05.116Z,96.59
2018-12-17T17:48:34.784Z,96.76
2018-12-17T17:51:04.530Z,96.56
2018-12-17T17:53:34.169Z,96.41
2018-12-17T17:56:03.837Z,95.63
2018-12-17T17:58:34.257Z,95.59
2018-12-17T18:01:04.414Z,95.44
2018-12-17T18:03:34.156Z,95.10
2018-12-17T18:06:03.829Z,95.17
2018-12-17T18:08:33.594Z,95.82
2018-12-17T18:11:03.273Z,95.63
2018-12-17T18:13:33.056Z,95.18
2018-12-17T18:16:03.155Z,93.89
2018-12-17T18:18:33.131Z,92.58
2018-12-17T18:21:03.163Z,92.59
2018-12-17T18:23:32.959Z,92.61
2018-12-17T18:26:02.546Z,92.55
2018-12-17T18:28:32.298Z,92.86
2018-12-17T18:31:03.106Z,93.47
2018-12-17T18:33:33.032Z,94.08
2018-12-17T18:36:02.827Z,94.64
2018-12-17T18:38:32.586Z,95.53
2018-12-17T18:41:02.487Z,96.17
2018-12-17T18:43:32.192Z,96.52
2018-12-17T18:46:01.792Z,96.86
2018-12-17T18:48:31.552Z,97.33
2018-12-17T18:51:01.296Z,97.74
2018-12-17T18:53:31.045Z,98.32
2018-12-17T18:56:00.704Z,98.49
2018-12-17T18:58:30.720Z,99.57
2018-12-17T19:01:00.459Z,99.77
2018-12-17T19:03:30.125Z,99.79
2018-12-17T19:05:59.914Z,99.31
2018-12-17T19:08:29.708Z,98.65
2018-12-17T19:10:59.377Z,98.52
2018-12-17T19:13:28.916Z,99.18
2018-12-17T19:15:58.477Z,98.72
2018-12-17T19:18:29.047Z,98.74
2018-12-17T19:20:59.034Z,98.47
2018-12-17T19:23:28.582Z,99.32
2018-12-17T19:25:58.154Z,99.44
2018-12-17T19:28:27.890Z,99.63
2018-12-17T19:30:57.678Z,99.88
2018-12-17T19:33:27.369Z,100.00
2018-12-17T19:35:57.116Z,99.79
2018-12-17T19:38:26.895Z,99.62
2018-12-17T19:40:56.848Z,100.00
2018-12-17T19:43:26.737Z,100.00
2018-12-17T19:45:56.677Z,100.00
2018-12-17T19:48:26.717Z,100.00
2018-12-17T19:50:56.569Z,100.00
2018-12-17T19:53:26.443Z,100.00
2018-12-17T19:55:56.215Z,100.00
2018-12-17T19:58:25.882Z,100.00
2018-12-17T20:00:57.910Z,100.00
2018-12-17T20:03:27.663Z,100.00
2018-12-17T20:05:57.226Z,100.00
2018-12-17T20:08:27.025Z,100.00
2018-12-17T20:10:56.864Z,100.00
2018-12-17T20:13:26.881Z,100.00
2018-12-17T20:15:56.920Z,100.00
2018-12-17T20:18:26.556Z,100.00
2018-12-17T20:20:56.214Z,100.00
2018-12-17T20:23:26.085Z,100.00
2018-12-17T20:25:55.792Z,100.00
2018-12-17T20:28:25.683Z,100.00
2018-12-17T20:30:55.712Z,100.00
2018-12-17T20:33:25.351Z,100.00
2018-12-17T20:35:55.059Z,100.00
2018-12-17T20:38:24.719Z,100.00
2018-12-17T20:40:54.634Z,100.00
2018-12-17T20:43:24.296Z,100.00
2018-12-17T20:45:53.930Z,100.00
2018-12-17T20:48:23.924Z,100.00
2018-12-17T20:50:53.767Z,100.00
2018-12-17T20:53:23.741Z,100.00
2018-12-17T20:55:53.674Z,100.00
2018-12-17T20:58:23.458Z,100.00
2018-12-17T21:00:54.726Z,100.00
2018-12-17T21:03:24.694Z,99.64
2018-12-17T21:05:54.420Z,98.91
2018-12-17T21:08:24.199Z,98.26
2018-12-17T21:10:53.997Z,97.92
2018-12-17T21:13:23.701Z,97.57
2018-12-17T21:15:53.569Z,96.94
2018-12-17T21:18:23.250Z,96.54
2018-12-17T21:20:53.073Z,96.40
2018-12-17T21:23:23.388Z,96.00
2018-12-17T21:25:53.234Z,95.14
2018-12-17T21:28:23.013Z,95.07
2018-12-17T21:30:53.892Z,95.06
2018-12-17T21:33:23.579Z,95.28
2018-12-17T21:35:53.392Z,95.04
2018-12-17T21:38:23.295Z,95.37
2018-12-17T21:40:53.231Z,95.45
2018-12-17T21:43:23.105Z,95.28
2018-12-17T21:45:52.866Z,95.21
2018-12-17T21:48:22.471Z,96.07
2018-12-17T21:50:53.332Z,94.13
2018-12-17T21:53:23.157Z,93.19
2018-12-17T21:55:52.860Z,92.94
2018-12-17T21:58:22.941Z,93.28
2018-12-17T22:00:52.648Z,92.74
2018-12-17T22:03:22.956Z,92.15
2018-12-17T22:05:52.657Z,91.53
2018-12-17T22:08:23.201Z,91.58
2018-12-17T22:10:53.032Z,91.95
2018-12-17T22:13:22.591Z,91.54
2018-12-17T22:15:52.443Z,90.42
2018-12-17T22:18:22.131Z,89.76
2018-12-17T22:20:52.673Z,89.85
2018-12-17T22:23:22.634Z,89.29
2018-12-17T22:25:52.279Z,89.25
2018-12-17T22:28:22.089Z,88.79
2018-12-17T22:30:51.659Z,88.31
2018-12-17T22:33:21.632Z,88.19
2018-12-17T22:35:51.356Z,87.32
2018-12-17T22:38:21.262Z,87.52
2018-12-17T22:40:51.213Z,87.16
2018-12-17T22:43:21.083Z,86.96
2018-12-17T22:45:50.856Z,86.54
2018-12-17T22:48:20.544Z,87.10
2018-12-17T22:50:50.268Z,85.41
2018-12-17T22:53:20.064Z,86.47
2018-12-17T22:55:49.883Z,85.97
2018-12-17T22:58:19.561Z,85.13
2018-12-17T23:00:49.737Z,85.82
2018-12-17T23:03:19.368Z,85.69
2018-12-17T23:05:51.224Z,86.02
2018-12-17T23:08:20.932Z,84.55
2018-12-17T23:11:01.295Z,84.55
2018-12-17T23:13:41.647Z,84.41
2018-12-17T23:16:22.211Z,83.39
2018-12-17T23:18:50.382Z,82.08
2018-12-17T23:21:21.059Z,81.99
2018-12-17T23:23:50.716Z,87.89
2018-12-17T23:26:20.179Z,84.23
2018-12-17T23:28:50.124Z,81.11
2018-12-17T23:31:19.804Z,81.33
2018-12-17T23:33:49.743Z,80.61
2018-12-17T23:36:19.780Z,80.63
2018-12-17T23:38:49.671Z,80.44
2018-12-17T23:41:19.574Z,80.94
2018-12-17T23:43:49.829Z,80.71
2018-12-17T23:46:20.316Z,80.86
2018-12-17T23:48:49.831Z,81.04
2018-12-17T23:51:19.867Z,81.12
2018-12-17T23:53:49.418Z,80.48
2018-12-17T23:56:19.355Z,81.19
2018-12-17T23:58:49.226Z,80.93
